createdAt,value
2019-04-22T00:01:08.317Z,87.30
2019-04-22T00:04:01.315Z,87.20
2019-04-22T00:07:04.299Z,87.00
2019-04-22T00:10:04.821Z,86.90
2019-04-22T00:12:53.113Z,86.90
2019-04-22T00:15:33.658Z,86.60
2019-04-22T00:18:35.765Z,86.70
2019-04-22T00:21:19.830Z,86.60
2019-04-22T00:24:13.721Z,86.60
2019-04-22T00:26:57.097Z,86.40
2019-04-22T00:29:59.661Z,86.30
2019-04-22T00:32:39.721Z,86.30
2019-04-22T00:35:29.275Z,86.40
2019-04-22T00:38:28.422Z,86.50
2019-04-22T00:41:14.942Z,86.30
2019-04-22T00:44:02.846Z,86.20
2019-04-22T00:46:55.750Z,86.20
2019-04-22T00:50:10.906Z,85.90
2019-04-22T00:52:32.409Z,85.90
2019-04-22T00:55:23.078Z,85.80
2019-04-22T00:58:14.201Z,85.70
2019-04-22T01:01:00.145Z,85.60
2019-04-22T01:03:52.475Z,85.20
2019-04-22T01:06:35.531Z,85.00
2019-04-22T01:09:25.102Z,85.00
2019-04-22T01:12:13.499Z,85.00
2019-04-22T01:15:07.333Z,85.30
2019-04-22T01:17:51.078Z,84.90
2019-04-22T01:23:28.239Z,84.50
2019-04-22T01:26:21.537Z,84.50
2019-04-22T01:29:09.755Z,84.40
2019-04-22T01:31:47.402Z,84.10
2019-04-22T01:34:49.904Z,83.70
2019-04-22T01:37:41.619Z,83.30
2019-04-22T01:40:39.087Z,83.10
2019-04-22T01:43:33.627Z,82.90
2019-04-22T01:46:24.999Z,82.70
2019-04-22T01:49:10.358Z,82.70
2019-04-22T01:52:11.407Z,82.80
2019-04-22T01:54:48.533Z,82.60
2019-04-22T01:57:39.478Z,82.70
2019-04-22T02:00:27.385Z,82.60
2019-04-22T02:03:17.322Z,82.50
2019-04-22T02:06:07.206Z,82.40
2019-04-22T02:09:17.411Z,82.40
2019-04-22T02:12:00.503Z,82.80
2019-04-22T02:14:39.333Z,82.80
2019-04-22T02:17:31.493Z,82.80
2019-04-22T02:20:31.102Z,82.50
2019-04-22T02:23:30.272Z,83.20
2019-04-22T02:28:53.719Z,82.60
2019-04-22T02:31:56.457Z,82.20
2019-04-22T02:34:39.619Z,81.90
2019-04-22T02:37:36.058Z,82.10
2019-04-22T02:40:24.628Z,81.90
2019-04-22T02:43:19.240Z,81.60
2019-04-22T02:46:18.430Z,81.60
2019-04-22T02:51:47.443Z,81.10
2019-04-22T02:57:22.761Z,80.80
2019-04-22T03:08:43.322Z,80.80
2019-04-22T03:16:57.255Z,80.90
2019-04-22T03:28:33.103Z,81.00
2019-04-22T03:31:49.266Z,80.60
2019-04-22T03:40:07.296Z,80.80
2019-04-22T03:45:31.984Z,81.30
2019-04-22T03:48:28.774Z,81.40
2019-04-22T03:51:43.394Z,81.60
2019-04-22T03:54:21.338Z,81.80
2019-04-22T04:05:38.490Z,82.10
2019-04-22T04:08:22.459Z,82.10
2019-04-22T04:11:07.058Z,81.90
2019-04-22T04:14:12.331Z,81.80
2019-04-22T04:16:56.448Z,81.70
2019-04-22T04:19:48.197Z,82.00
2019-04-22T04:22:41.137Z,82.10
2019-04-22T04:31:04.862Z,82.70
2019-04-22T04:36:42.210Z,83.40
2019-04-22T04:39:34.926Z,83.70
2019-04-22T04:47:57.839Z,84.50
2019-04-22T04:51:04.644Z,85.20
2019-04-22T04:53:33.714Z,86.30
2019-04-22T04:56:35.891Z,86.50
2019-04-22T04:59:28.138Z,86.60
2019-04-22T05:02:12.315Z,86.40
2019-04-22T05:05:08.309Z,86.30
2019-04-22T05:10:53.494Z,86.30
2019-04-22T05:13:26.070Z,86.10
2019-04-22T05:19:07.864Z,85.50
2019-04-22T05:21:53.113Z,85.10
2019-04-22T05:24:40.530Z,85.00
2019-04-22T05:33:01.581Z,84.10
2019-04-22T05:35:56.354Z,84.00
2019-04-22T05:38:49.812Z,84.40
2019-04-22T05:41:36.445Z,84.20
2019-04-22T05:44:22.310Z,84.00
2019-04-22T05:47:14.675Z,83.50
2019-04-22T05:50:02.377Z,83.50
2019-04-22T05:55:47.928Z,83.10
2019-04-22T05:58:39.724Z,83.30
2019-04-22T06:04:19.772Z,83.10
2019-04-22T06:07:02.081Z,82.90
2019-04-22T06:10:02.511Z,82.50
2019-04-22T06:12:41.757Z,82.70
2019-04-22T06:15:34.433Z,83.00
2019-04-22T06:18:27.079Z,82.90
2019-04-22T06:21:22.427Z,83.30
2019-04-22T06:24:10.590Z,81.80
2019-04-22T06:27:01.630Z,81.60
2019-04-22T06:29:41.457Z,81.40
2019-04-22T06:32:31.391Z,82.30
2019-04-22T06:35:34.519Z,81.80
2019-04-22T06:41:10.074Z,81.80
2019-04-22T06:43:58.669Z,80.70
2019-04-22T06:46:43.311Z,80.30
2019-04-22T06:52:18.271Z,79.20
2019-04-22T06:55:28.686Z,79.50
2019-04-22T06:57:58.199Z,79.50
2019-04-22T07:00:44.449Z,79.10
2019-04-22T07:03:53.668Z,79.50
2019-04-22T07:06:49.905Z,79.60
2019-04-22T07:12:11.683Z,77.60
2019-04-22T07:15:01.639Z,78.50
2019-04-22T07:20:48.274Z,77.80
2019-04-22T07:23:38.608Z,75.70
2019-04-22T07:26:23.073Z,77.80
2019-04-22T07:29:07.464Z,76.60
2019-04-22T07:32:00.265Z,75.90
2019-04-22T07:34:52.346Z,76.50
2019-04-22T07:40:40.048Z,76.30
2019-04-22T07:43:27.937Z,74.80
2019-04-22T07:46:13.588Z,76.00
2019-04-22T07:49:02.333Z,76.40
2019-04-22T07:51:50.130Z,76.00
2019-04-22T07:54:41.640Z,76.70
2019-04-22T07:57:47.161Z,74.60
2019-04-22T08:00:28.043Z,73.80
2019-04-22T08:03:12.229Z,73.70
2019-04-22T08:06:07.973Z,73.00
2019-04-22T08:08:53.586Z,73.40
2019-04-22T08:14:28.384Z,74.80
2019-04-22T08:17:52.092Z,75.00
2019-04-22T08:20:09.230Z,76.10
2019-04-22T08:23:05.980Z,75.10
2019-04-22T08:25:49.486Z,70.80
2019-04-22T08:28:40.457Z,71.40
2019-04-22T08:31:31.737Z,69.20
2019-04-22T08:37:35.431Z,67.10
2019-04-22T08:40:03.436Z,69.80
2019-04-22T08:42:53.536Z,70.10
2019-04-22T08:45:40.126Z,68.90
2019-04-22T08:48:22.800Z,61.70
2019-04-22T08:51:13.599Z,62.90
2019-04-22T08:59:43.278Z,65.70
2019-04-22T09:02:32.466Z,62.80
2019-04-22T09:05:39.086Z,64.60
2019-04-22T09:08:15.653Z,65.90
2019-04-22T09:11:03.633Z,62.00
2019-04-22T09:19:28.490Z,62.60
2019-04-22T09:22:17.272Z,61.60
2019-04-22T09:25:08.038Z,60.30
2019-04-22T09:27:57.197Z,60.90
2019-04-22T09:30:55.568Z,60.00
2019-04-22T09:33:37.127Z,61.40
2019-04-22T09:39:28.301Z,60.50
2019-04-22T09:42:24.761Z,58.10
2019-04-22T09:45:10.178Z,63.70
2019-04-22T09:47:56.831Z,61.60
2019-04-22T09:50:43.201Z,58.10
2019-04-22T09:53:29.774Z,59.50
2019-04-22T09:56:17.631Z,60.70
2019-04-22T09:59:07.716Z,59.60
2019-04-22T10:02:13.387Z,60.00
2019-04-22T10:04:55.463Z,54.30
2019-04-22T10:07:54.477Z,58.60
2019-04-22T10:10:29.968Z,58.30
2019-04-22T10:13:23.356Z,57.30
2019-04-22T10:16:10.809Z,57.50
2019-04-22T10:18:59.459Z,57.20
2019-04-22T10:24:33.061Z,54.30
2019-04-22T10:27:29.263Z,52.80
2019-04-22T10:30:13.010Z,49.70
2019-04-22T10:33:02.520Z,51.80
2019-04-22T10:35:30.677Z,51.60
2019-04-22T10:38:18.487Z,50.30
2019-04-22T10:41:06.542Z,47.90
2019-04-22T10:43:55.198Z,49.80
2019-04-22T10:46:44.273Z,51.40
2019-04-22T10:49:34.547Z,52.90
2019-04-22T10:52:23.693Z,52.40
2019-04-22T10:55:13.776Z,51.40
2019-04-22T10:58:02.804Z,50.00
2019-04-22T11:00:52.341Z,49.80
2019-04-22T11:03:45.505Z,46.90
2019-04-22T11:06:42.951Z,48.80
2019-04-22T11:09:28.935Z,47.80
2019-04-22T11:12:22.844Z,48.20
2019-04-22T11:15:09.732Z,46.30
2019-04-22T11:17:57.792Z,46.80
2019-04-22T11:20:45.714Z,45.00
2019-04-22T11:23:40.750Z,45.10
2019-04-22T11:26:29.941Z,46.80
2019-04-22T11:29:19.523Z,45.00
2019-04-22T11:32:08.528Z,43.40
2019-04-22T11:34:58.064Z,43.60
2019-04-22T11:37:48.546Z,42.20
2019-04-22T11:40:40.359Z,42.00
2019-04-22T11:43:28.346Z,39.90
2019-04-22T11:46:17.654Z,40.30
2019-04-22T11:49:07.832Z,40.70
2019-04-22T11:51:58.873Z,39.60
2019-04-22T11:54:48.510Z,40.50
2019-04-22T11:57:37.171Z,38.40
2019-04-22T12:00:31.007Z,37.10
2019-04-22T12:03:18.993Z,39.10
2019-04-22T12:06:08.272Z,39.00
2019-04-22T12:08:57.574Z,38.50
2019-04-22T12:11:46.898Z,38.20
2019-04-22T12:14:36.216Z,36.30
2019-04-22T12:17:26.508Z,37.80
2019-04-22T12:20:18.403Z,37.10
2019-04-22T12:23:07.386Z,39.00
2019-04-22T12:26:03.307Z,38.20
2019-04-22T12:28:46.725Z,38.40
2019-04-22T12:31:35.714Z,38.40
2019-04-22T12:34:23.922Z,38.20
2019-04-22T12:37:14.901Z,33.10
2019-04-22T12:40:06.524Z,37.90
2019-04-22T12:42:55.456Z,36.80
2019-04-22T12:45:44.745Z,37.70
2019-04-22T12:48:33.013Z,36.70
2019-04-22T12:51:21.131Z,36.60
2019-04-22T12:54:09.066Z,38.50
2019-04-22T12:56:57.745Z,37.80
2019-04-22T12:59:45.705Z,35.50
2019-04-22T13:02:34.492Z,32.20
2019-04-22T13:05:25.016Z,31.80
2019-04-22T13:08:13.942Z,34.70
2019-04-22T13:11:08.748Z,36.20
2019-04-22T13:13:52.502Z,33.80
2019-04-22T13:16:40.911Z,33.50
2019-04-22T13:19:30.172Z,33.10
2019-04-22T13:22:19.046Z,34.50
2019-04-22T13:25:12.453Z,33.20
2019-04-22T13:28:01.018Z,34.10
2019-04-22T13:30:50.551Z,34.20
2019-04-22T13:33:39.191Z,32.90
2019-04-22T13:36:30.271Z,32.00
2019-04-22T13:39:18.706Z,33.80
2019-04-22T13:42:12.512Z,30.30
2019-04-22T13:44:58.104Z,32.60
2019-04-22T13:51:11.030Z,29.80
2019-04-22T13:54:14.458Z,31.90
2019-04-22T13:54:47.207Z,30.60
2019-04-22T13:56:37.344Z,31.10
2019-04-22T13:59:17.659Z,31.60
2019-04-22T14:02:12.744Z,29.30
2019-04-22T14:05:01.082Z,30.20
2019-04-22T14:07:52.054Z,29.60
2019-04-22T14:10:40.462Z,31.20
2019-04-22T14:13:29.951Z,33.40
2019-04-22T14:16:19.532Z,33.80
2019-04-22T14:19:07.920Z,32.40
2019-04-22T14:21:58.067Z,30.30
2019-04-22T14:24:46.872Z,30.40
2019-04-22T14:27:47.541Z,32.60
2019-04-22T14:30:26.318Z,30.40
2019-04-22T14:33:16.082Z,29.30
2019-04-22T14:36:05.056Z,28.30
2019-04-22T14:38:54.405Z,28.60
2019-04-22T14:41:55.973Z,29.40
2019-04-22T14:47:51.128Z,32.40
2019-04-22T14:50:35.535Z,31.80
2019-04-22T14:53:29.386Z,27.60
2019-04-22T14:55:54.782Z,28.90
2019-04-22T14:58:42.834Z,28.00
2019-04-22T15:01:30.918Z,28.20
2019-04-22T15:04:19.619Z,29.50
2019-04-22T15:07:08.857Z,26.50
2019-04-22T15:09:57.782Z,27.00
2019-04-22T15:12:49.802Z,26.70
2019-04-22T15:15:43.324Z,27.80
2019-04-22T15:18:28.417Z,27.70
2019-04-22T15:21:18.663Z,26.00
2019-04-22T15:24:26.867Z,28.70
2019-04-22T15:27:16.242Z,28.50
2019-04-22T15:30:07.569Z,27.50
2019-04-22T15:32:57.247Z,27.70
2019-04-22T15:35:47.234Z,32.00
2019-04-22T15:38:36.505Z,28.90
2019-04-22T15:41:25.457Z,29.70
2019-04-22T15:44:13.751Z,29.00
2019-04-22T15:47:02.793Z,28.20
2019-04-22T15:49:52.186Z,27.50
2019-04-22T15:52:47.904Z,27.10
2019-04-22T15:55:30.490Z,29.00
2019-04-22T15:58:19.743Z,30.00
2019-04-22T16:01:15.136Z,29.10
2019-04-22T16:03:58.707Z,28.20
2019-04-22T16:06:49.291Z,29.50
2019-04-22T16:09:39.356Z,28.30
2019-04-22T16:12:35.974Z,27.10
2019-04-22T16:15:20.319Z,27.10
2019-04-22T16:18:14.609Z,27.20
2019-04-22T16:21:02.762Z,26.90
2019-04-22T16:23:58.666Z,27.70
2019-04-22T16:26:48.551Z,28.00
2019-04-22T16:29:37.210Z,28.80
2019-04-22T16:32:27.624Z,30.10
2019-04-22T16:35:16.862Z,29.10
2019-04-22T16:38:06.827Z,31.80
2019-04-22T16:40:56.734Z,31.20
2019-04-22T16:43:46.684Z,29.70
2019-04-22T16:46:35.066Z,29.90
2019-04-22T16:49:23.581Z,32.20
2019-04-22T16:52:12.221Z,32.90
2019-04-22T16:55:00.976Z,33.30
2019-04-22T16:57:49.369Z,32.20
2019-04-22T17:00:38.496Z,30.50
2019-04-22T17:03:40.690Z,32.60
2019-04-22T17:06:31.798Z,33.00
2019-04-22T17:09:21.525Z,33.10
2019-04-22T17:12:09.987Z,32.90
2019-04-22T17:15:02.769Z,33.80
2019-04-22T17:17:49.403Z,34.00
2019-04-22T17:20:37.716Z,32.60
2019-04-22T17:23:25.948Z,33.20
2019-04-22T17:26:14.799Z,33.90
2019-04-22T17:29:06.294Z,32.90
2019-04-22T17:31:58.363Z,33.50
2019-04-22T17:34:43.415Z,33.20
2019-04-22T17:37:35.495Z,34.10
2019-04-22T17:40:39.485Z,33.90
2019-04-22T17:43:40.556Z,34.30
2019-04-22T17:46:32.411Z,36.20
2019-04-22T17:49:48.566Z,34.70
2019-04-22T17:52:24.952Z,36.70
2019-04-22T17:55:12.747Z,35.80
2019-04-22T17:58:08.108Z,36.30
2019-04-22T18:00:56.759Z,36.50
2019-04-22T18:03:31.095Z,36.40
2019-04-22T18:06:46.950Z,37.10
2019-04-22T18:09:41.766Z,38.10
2019-04-22T18:12:27.625Z,38.40
2019-04-22T18:15:11.466Z,39.10
2019-04-22T18:18:03.507Z,40.40
2019-04-22T18:20:39.452Z,40.20
2019-04-22T18:23:22.669Z,40.80
2019-04-22T18:26:26.192Z,41.50
2019-04-22T18:29:19.079Z,42.10
2019-04-22T18:31:55.678Z,42.30
2019-04-22T18:34:45.602Z,42.70
2019-04-22T18:37:50.052Z,43.30
2019-04-22T18:40:36.296Z,43.80
2019-04-22T18:43:31.116Z,44.30
2019-04-22T18:46:19.048Z,44.80
2019-04-22T18:49:00.520Z,44.70
2019-04-22T18:52:01.132Z,45.20
2019-04-22T18:54:55.359Z,45.40
2019-04-22T18:57:34.028Z,46.40
2019-04-22T19:00:14.597Z,46.60
2019-04-22T19:03:13.227Z,46.70
2019-04-22T19:06:24.778Z,47.00
2019-04-22T19:09:10.662Z,47.40
2019-04-22T19:12:09.052Z,47.60
2019-04-22T19:14:49.978Z,48.00
2019-04-22T19:17:44.304Z,48.20
2019-04-22T19:20:28.678Z,48.20
2019-04-22T19:23:12.909Z,48.50
2019-04-22T19:25:58.609Z,48.80
2019-04-22T19:28:52.357Z,49.20
2019-04-22T19:31:43.795Z,49.30
2019-04-22T19:34:32.272Z,48.90
2019-04-22T19:37:17.341Z,49.00
2019-04-22T19:40:17.596Z,49.70
2019-04-22T19:43:02.464Z,49.30
2019-04-22T19:45:48.996Z,49.20
2019-04-22T19:48:57.989Z,49.10
2019-04-22T19:51:44.069Z,49.20
2019-04-22T19:54:17.415Z,49.20
2019-04-22T19:57:03.571Z,49.20
2019-04-22T20:00:01.583Z,49.40
2019-04-22T20:03:03.290Z,49.10
2019-04-22T20:05:58.108Z,49.60
2019-04-22T20:08:41.280Z,49.30
2019-04-22T20:11:34.183Z,48.80
2019-04-22T20:14:22.979Z,48.90
2019-04-22T20:17:07.552Z,48.90
2019-04-22T20:20:06.528Z,47.80
2019-04-22T20:22:44.484Z,48.10
2019-04-22T20:25:34.860Z,48.10
2019-04-22T20:28:32.654Z,48.30
2019-04-22T20:31:18.910Z,48.10
2019-04-22T20:34:14.729Z,47.80
2019-04-22T20:37:03.139Z,47.70
2019-04-22T20:39:57.203Z,47.70
2019-04-22T20:42:45.023Z,48.70
2019-04-22T20:45:30.915Z,48.00
2019-04-22T20:48:09.287Z,47.50
2019-04-22T20:51:12.731Z,47.60
2019-04-22T20:54:04.246Z,47.90
2019-04-22T20:56:45.196Z,47.90
2019-04-22T20:59:38.730Z,47.90
2019-04-22T21:02:25.207Z,47.60
2019-04-22T21:05:08.408Z,47.70
2019-04-22T21:08:11.374Z,48.40
2019-04-22T21:10:53.476Z,47.80
2019-04-22T21:13:48.051Z,47.60
2019-04-22T21:16:40.017Z,47.10
2019-04-22T21:19:37.857Z,47.40
2019-04-22T21:22:24.478Z,47.70
2019-04-22T21:25:01.985Z,48.30
2019-04-22T21:27:57.989Z,48.80
2019-04-22T21:30:51.001Z,49.40
2019-04-22T21:33:31.430Z,50.00
2019-04-22T21:36:35.255Z,50.50
2019-04-22T21:39:12.479Z,51.20
2019-04-22T21:42:09.478Z,51.90
2019-04-22T21:44:54.118Z,52.40
2019-04-22T21:47:57.597Z,53.10
2019-04-22T21:53:31.606Z,53.90
2019-04-22T21:56:38.131Z,54.30
2019-04-22T21:59:06.815Z,54.70
2019-04-22T22:01:58.640Z,55.20
2019-04-22T22:04:44.485Z,55.60
2019-04-22T22:07:21.447Z,55.90
2019-04-22T22:10:27.103Z,56.20
2019-04-22T22:13:20.066Z,56.60
2019-04-22T22:16:05.178Z,57.00
2019-04-22T22:19:00.805Z,57.30
2019-04-22T22:21:51.146Z,57.70
2019-04-22T22:24:42.129Z,57.90
2019-04-22T22:27:28.103Z,58.40
2019-04-22T22:30:39.956Z,58.80
2019-04-22T22:33:05.759Z,59.00
2019-04-22T22:35:57.129Z,59.20
2019-04-22T22:38:41.612Z,59.30
2019-04-22T22:41:14.076Z,59.50
2019-04-22T22:44:13.097Z,59.60
2019-04-22T22:47:08.403Z,60.00
2019-04-22T22:50:03.046Z,60.30
2019-04-22T22:53:00.867Z,61.10
2019-04-22T22:55:39.873Z,60.90
2019-04-22T22:58:34.297Z,60.70
2019-04-22T23:01:23.509Z,60.40
2019-04-22T23:04:32.840Z,60.80
2019-04-22T23:07:24.038Z,61.10
2019-04-22T23:10:09.598Z,61.10
2019-04-22T23:13:06.774Z,61.60
2019-04-22T23:15:42.184Z,61.90
2019-04-22T23:18:17.429Z,62.30
2019-04-22T23:21:08.258Z,63.20
2019-04-22T23:24:12.897Z,63.00
2019-04-22T23:27:04.306Z,63.30
2019-04-22T23:30:06.389Z,63.20
2019-04-22T23:33:05.908Z,63.30
2019-04-22T23:35:56.616Z,63.30
2019-04-22T23:38:50.507Z,63.50
2019-04-22T23:41:45.833Z,63.60
2019-04-22T23:44:30.831Z,63.70
2019-04-22T23:47:16.023Z,64.00
2019-04-22T23:50:09.646Z,64.00
2019-04-22T23:52:59.517Z,64.50
2019-04-22T23:55:50.581Z,64.20
